createdAt,value
2022-12-03T00:00:19.906Z,94771.34
2022-12-03T00:02:46.570Z,94774.75
2022-12-03T00:05:13.165Z,94770.13
2022-12-03T00:07:39.813Z,94770.75
2022-12-03T00:10:08.501Z,94765.91
2022-12-03T00:12:36.373Z,94770.13
2022-12-03T00:15:03.280Z,94771.13
2022-12-03T00:17:29.794Z,94766.72
2022-12-03T00:19:56.334Z,94760.66
2022-12-03T00:22:22.878Z,94764.91
2022-12-03T00:24:49.568Z,94764.72
2022-12-03T00:27:16.098Z,94762.47
2022-12-03T00:29:43.997Z,94756.22
2022-12-03T00:32:10.591Z,94753.63
2022-12-03T00:34:37.136Z,94754.44
2022-12-03T00:37:03.709Z,94754.63
2022-12-03T00:39:30.237Z,94769.31
2022-12-03T00:41:56.793Z,94764.91
2022-12-03T00:44:23.345Z,94764.09
2022-12-03T00:46:51.428Z,94759.66
2022-12-03T00:49:18.091Z,94765.72
2022-12-03T00:51:44.607Z,94766.72
2022-12-03T00:54:11.298Z,94763.91
2022-12-03T00:56:37.813Z,94766.72
2022-12-03T00:59:04.400Z,94764.09
2022-12-03T01:01:31.017Z,94766.09
2022-12-03T01:03:58.930Z,94772.16
2022-12-03T01:06:25.473Z,94770.94
2022-12-03T01:08:52.049Z,94769.94
2022-12-03T01:11:37.126Z,94763.91
2022-12-03T01:14:04.094Z,94762.53
2022-12-03T01:16:30.664Z,94761.09
2022-12-03T01:18:58.592Z,94759.41
2022-12-03T01:21:25.125Z,94764.75
2022-12-03T01:23:51.740Z,94756.59
2022-12-03T01:26:18.277Z,94759.91
2022-12-03T01:28:44.807Z,94760.81
2022-12-03T01:31:30.306Z,94758.41
2022-12-03T01:33:57.062Z,94758.09
2022-12-03T01:36:24.994Z,94761.22
2022-12-03T01:38:51.527Z,94759.38
2022-12-03T01:41:19.384Z,94760.56
2022-12-03T01:43:46.392Z,94763.47
2022-12-03T01:46:15.728Z,94760.91
2022-12-03T01:48:42.415Z,94756.41
2022-12-03T01:51:09.002Z,94765.13
2022-12-03T01:53:36.990Z,94759.47
2022-12-03T01:56:03.683Z,94767.03
2022-12-03T01:58:30.557Z,94756.75
2022-12-03T02:00:59.038Z,94756.03
2022-12-03T02:03:26.155Z,94764.19
2022-12-03T02:05:52.880Z,94758.28
2022-12-03T02:08:34.116Z,94762.81
2022-12-03T02:11:05.719Z,94767.81
2022-12-03T02:13:32.805Z,94764.09
2022-12-03T02:15:59.491Z,94758.53
2022-12-03T02:18:26.160Z,94757.28
2022-12-03T02:21:00.316Z,94754.13
2022-12-03T02:23:34.446Z,94755.44
2022-12-03T02:26:02.340Z,94758.28
2022-12-03T02:28:28.954Z,94757.28
2022-12-03T02:30:55.945Z,94758.91
2022-12-03T02:33:22.585Z,94752.88
2022-12-03T02:35:49.508Z,94757.09
2022-12-03T02:38:18.854Z,94754.28
2022-12-03T02:40:47.647Z,94752.28
2022-12-03T02:43:17.475Z,94754.34
2022-12-03T02:45:46.850Z,94761.06
2022-12-03T02:48:17.876Z,94768.94
2022-12-03T02:50:48.749Z,94760.88
2022-12-03T02:53:17.902Z,94765.81
2022-12-03T02:55:45.245Z,94764.38
2022-12-03T02:58:12.065Z,94759.16
2022-12-03T03:00:41.155Z,94761.91
2022-12-03T03:03:08.926Z,94757.81
2022-12-03T03:05:37.296Z,94761.19
2022-12-03T03:08:05.330Z,94757.25
2022-12-03T03:10:33.928Z,94752.47
2022-12-03T03:13:03.775Z,94750.25
2022-12-03T03:15:30.388Z,94754.50
2022-12-03T03:17:58.322Z,94753.28
2022-12-03T03:20:24.828Z,94742.53
2022-12-03T03:22:51.353Z,94744.28
2022-12-03T03:25:21.120Z,94749.31
2022-12-03T03:27:47.695Z,94743.13
2022-12-03T03:30:14.608Z,94740.75
2022-12-03T03:32:42.593Z,94748.63
2022-12-03T03:35:11.875Z,94745.00
2022-12-03T03:37:38.977Z,94750.25
2022-12-03T03:40:07.095Z,94747.25
2022-12-03T03:42:34.079Z,94743.44
2022-12-03T03:45:00.706Z,94752.09
2022-12-03T03:47:27.375Z,94756.53
2022-12-03T03:49:54.288Z,94750.47
2022-12-03T03:52:23.013Z,94744.19
2022-12-03T03:54:49.883Z,94748.88
2022-12-03T03:57:16.738Z,94753.97
2022-12-03T03:59:43.472Z,94755.56
2022-12-03T04:02:18.541Z,94759.81
2022-12-03T04:04:45.477Z,94751.31
2022-12-03T04:07:12.031Z,94755.13
2022-12-03T04:09:39.897Z,94751.50
2022-12-03T04:12:25.483Z,94750.63
2022-12-03T04:14:52.464Z,94746.09
2022-12-03T04:17:19.192Z,94741.66
2022-12-03T04:19:45.720Z,94739.47
2022-12-03T04:22:30.805Z,94748.97
2022-12-03T04:25:17.423Z,94743.97
2022-12-03T04:28:02.791Z,94738.88
2022-12-03T04:30:29.555Z,94736.97
2022-12-03T04:33:14.502Z,94733.00
2022-12-03T04:35:44.204Z,94737.84
2022-12-03T04:38:10.692Z,94732.75
2022-12-03T04:40:57.083Z,94733.56
2022-12-03T04:43:23.669Z,94733.03
2022-12-03T04:45:50.271Z,94738.31
2022-12-03T04:48:17.340Z,94743.78
2022-12-03T04:50:43.909Z,94743.59
2022-12-03T04:53:10.516Z,94736.94
2022-12-03T04:55:38.408Z,94746.91
2022-12-03T04:58:05.162Z,94742.97
2022-12-03T05:00:31.698Z,94750.63
2022-12-03T05:02:58.522Z,94746.81
2022-12-03T05:05:25.113Z,94749.25
2022-12-03T05:07:51.701Z,94752.88
2022-12-03T05:10:18.393Z,94751.88
2022-12-03T05:12:46.249Z,94759.91
2022-12-03T05:15:12.831Z,94761.72
2022-12-03T05:17:39.340Z,94760.34
2022-12-03T05:20:26.343Z,94757.72
2022-12-03T05:22:52.860Z,94766.53
2022-12-03T05:25:19.401Z,94762.88
2022-12-03T05:27:47.263Z,94758.03
2022-12-03T05:30:14.378Z,94755.59
2022-12-03T05:32:40.966Z,94757.63
2022-12-03T05:35:08.105Z,94758.66
2022-12-03T05:37:34.632Z,94757.72
2022-12-03T05:40:01.167Z,94767.16
2022-12-03T05:42:46.529Z,94759.31
2022-12-03T05:45:14.549Z,94746.44
2022-12-03T05:47:41.055Z,94763.34
2022-12-03T05:50:08.259Z,94770.19
2022-12-03T05:52:34.863Z,94766.34
2022-12-03T05:55:01.448Z,94771.84
2022-12-03T05:57:27.977Z,94773.53
2022-12-03T05:59:54.524Z,94774.44
2022-12-03T06:02:22.556Z,94769.22
2022-12-03T06:04:49.264Z,94762.75
2022-12-03T06:07:15.792Z,94762.13
2022-12-03T06:09:42.360Z,94749.13
2022-12-03T06:12:08.968Z,94754.31
2022-12-03T06:14:35.683Z,94760.03
2022-12-03T06:17:02.664Z,94748.09
2022-12-03T06:19:30.535Z,94750.75
2022-12-03T06:21:57.125Z,94745.41
2022-12-03T06:24:23.672Z,94741.03
2022-12-03T06:26:50.239Z,94742.72
2022-12-03T06:29:16.818Z,94733.25
2022-12-03T06:31:43.425Z,94741.72
2022-12-03T06:34:10.041Z,94739.53
2022-12-03T06:36:37.940Z,94740.97
2022-12-03T06:39:04.623Z,94742.59
2022-12-03T06:41:31.253Z,94741.22
2022-12-03T06:43:57.800Z,94748.75
2022-12-03T06:46:24.448Z,94749.84
2022-12-03T06:48:51.034Z,94751.00
2022-12-03T06:51:17.553Z,94752.63
2022-12-03T06:53:45.429Z,94744.53
2022-12-03T06:56:11.949Z,94743.16
2022-12-03T06:58:38.551Z,94738.16
2022-12-03T07:01:05.367Z,94745.06
2022-12-03T07:03:31.927Z,94745.22
2022-12-03T07:05:58.484Z,94741.22
2022-12-03T07:08:25.016Z,94740.06
2022-12-03T07:10:52.875Z,94744.09
2022-12-03T07:13:19.602Z,94740.13
2022-12-03T07:15:46.233Z,94747.72
2022-12-03T07:18:12.763Z,94742.63
2022-12-03T07:20:39.348Z,94743.97
2022-12-03T07:23:05.885Z,94747.19
2022-12-03T07:25:32.451Z,94743.91
2022-12-03T07:28:00.632Z,94747.09
2022-12-03T07:30:27.762Z,94743.84
2022-12-03T07:32:57.271Z,94760.97
2022-12-03T07:35:23.796Z,94748.91
2022-12-03T07:37:50.336Z,94762.31
2022-12-03T07:40:17.147Z,94748.72
2022-12-03T07:42:43.677Z,94750.75
2022-12-03T07:45:11.812Z,94751.91
2022-12-03T07:47:38.355Z,94753.06
2022-12-03T07:50:05.962Z,94754.81
2022-12-03T07:52:32.494Z,94743.66
2022-12-03T07:54:59.028Z,94745.19
2022-12-03T07:57:25.554Z,94744.22
2022-12-03T07:59:52.064Z,94739.06
2022-12-03T08:02:21.851Z,94741.28
2022-12-03T08:04:48.606Z,94742.47
2022-12-03T08:07:15.123Z,94746.53
2022-12-03T08:09:42.092Z,94753.28
2022-12-03T08:12:15.244Z,94753.75
2022-12-03T08:14:41.813Z,94759.50
2022-12-03T08:17:11.671Z,94757.09
2022-12-03T08:19:41.053Z,94744.94
2022-12-03T08:22:11.318Z,94741.09
2022-12-03T08:24:37.873Z,94743.59
2022-12-03T08:27:14.697Z,94746.59
2022-12-03T08:29:41.221Z,94738.84
2022-12-03T08:32:10.344Z,94741.28
2022-12-03T08:34:41.831Z,94742.84
2022-12-03T08:37:16.393Z,94745.16
2022-12-03T08:39:45.571Z,94745.09
2022-12-03T08:42:34.771Z,94754.38
2022-12-03T08:45:40.511Z,94753.50
2022-12-03T08:48:27.205Z,94753.84
2022-12-03T08:50:56.448Z,94752.94
2022-12-03T08:53:30.429Z,94747.91
2022-12-03T08:55:59.069Z,94749.03
2022-12-03T08:58:33.274Z,94748.06
2022-12-03T09:01:15.179Z,94752.00
2022-12-03T09:03:48.063Z,94753.50
2022-12-03T09:06:16.041Z,94753.78
2022-12-03T09:08:42.612Z,94756.00
2022-12-03T09:11:09.277Z,94756.78
2022-12-03T09:13:35.804Z,94753.22
2022-12-03T09:16:02.385Z,94758.78
2022-12-03T09:18:28.929Z,94764.50
2022-12-03T09:20:56.417Z,94759.84
2022-12-03T09:23:24.306Z,94754.97
2022-12-03T09:25:50.824Z,94757.25
2022-12-03T09:28:17.375Z,94750.94
2022-12-03T09:30:43.963Z,94737.50
2022-12-03T09:33:10.598Z,94741.72
2022-12-03T09:35:37.154Z,94744.28
2022-12-03T09:38:03.686Z,94740.53
2022-12-03T09:40:31.582Z,94742.69
2022-12-03T09:43:00.972Z,94742.25
2022-12-03T09:45:27.736Z,94731.19
2022-12-03T09:47:55.333Z,94729.13
2022-12-03T09:50:24.400Z,94725.34
2022-12-03T09:52:54.819Z,94711.75
2022-12-03T09:55:24.133Z,94718.09
2022-12-03T09:57:52.883Z,94706.00
2022-12-03T10:00:23.306Z,94700.59
2022-12-03T10:02:51.298Z,94711.66
2022-12-03T10:05:19.444Z,94706.38
2022-12-03T10:07:46.827Z,94706.44
2022-12-03T10:10:16.200Z,94694.22
2022-12-03T10:12:42.893Z,94701.34
2022-12-03T10:15:13.884Z,94689.09
2022-12-03T10:17:41.029Z,94689.94
2022-12-03T10:20:12.509Z,94685.81
2022-12-03T10:22:39.221Z,94695.66
2022-12-03T10:25:10.392Z,94678.22
2022-12-03T10:27:37.313Z,94683.94
2022-12-03T10:30:13.763Z,94672.19
2022-12-03T10:32:44.188Z,94673.41
2022-12-03T10:35:13.273Z,94670.03
2022-12-03T10:37:56.802Z,94659.41
2022-12-03T10:40:25.455Z,94670.25
2022-12-03T10:42:52.072Z,94666.69
2022-12-03T10:45:20.418Z,94665.13
2022-12-03T10:48:06.297Z,94660.53
2022-12-03T10:50:34.477Z,94662.34
2022-12-03T10:53:01.495Z,94650.16
2022-12-03T10:55:29.091Z,94658.72
2022-12-03T10:57:55.647Z,94655.91
2022-12-03T11:00:23.299Z,94655.75
2022-12-03T11:02:56.436Z,94651.66
2022-12-03T11:05:27.922Z,94656.34
2022-12-03T11:07:55.501Z,94654.19
2022-12-03T11:10:22.337Z,94658.97
2022-12-03T11:13:43.372Z,94652.59
2022-12-03T11:16:10.221Z,94659.34
2022-12-03T11:18:59.613Z,94649.75
2022-12-03T11:21:28.288Z,94651.81
2022-12-03T11:24:27.903Z,94650.69
2022-12-03T11:27:21.511Z,94646.91
2022-12-03T11:29:53.982Z,94653.84
2022-12-03T11:33:06.425Z,94663.50
2022-12-03T11:36:31.789Z,94662.56
2022-12-03T11:39:08.476Z,94657.53
2022-12-03T11:41:35.664Z,94659.06
2022-12-03T11:44:31.169Z,94662.09
2022-12-03T11:46:59.810Z,94663.72
2022-12-03T11:49:34.131Z,94659.06
2022-12-03T11:52:03.657Z,94647.53
2022-12-03T11:54:35.554Z,94655.94
2022-12-03T11:57:02.686Z,94649.75
2022-12-03T11:59:29.345Z,94644.56
2022-12-03T12:01:55.879Z,94641.06
2022-12-03T12:04:33.883Z,94637.06
2022-12-03T12:07:01.159Z,94637.13
2022-12-03T12:09:52.679Z,94636.91
2022-12-03T12:12:30.757Z,94641.72
2022-12-03T12:14:58.336Z,94639.44
2022-12-03T12:17:34.474Z,94634.94
2022-12-03T12:20:27.988Z,94626.50
2022-12-03T12:22:55.243Z,94616.88
2022-12-03T12:25:41.510Z,94613.72
2022-12-03T12:28:08.740Z,94607.69
2022-12-03T12:30:35.321Z,94603.34
2022-12-03T12:33:11.395Z,94602.69
2022-12-03T12:35:38.048Z,94604.50
2022-12-03T12:38:14.435Z,94608.97
2022-12-03T12:40:45.469Z,94605.13
2022-12-03T12:43:30.726Z,94604.56
2022-12-03T12:46:38.560Z,94600.16
2022-12-03T12:48:56.523Z,94599.03
2022-12-03T12:51:25.992Z,94613.66
2022-12-03T12:53:53.496Z,94611.66
2022-12-03T12:56:24.741Z,94599.09
2022-12-03T12:58:51.967Z,94593.38
2022-12-03T13:01:21.669Z,94595.19
2022-12-03T13:03:50.868Z,94597.84
2022-12-03T13:06:19.177Z,94594.38
2022-12-03T13:08:48.398Z,94593.25
2022-12-03T13:11:34.495Z,94593.88
2022-12-03T13:14:05.182Z,94586.88
2022-12-03T13:16:32.950Z,94584.09
2022-12-03T13:19:01.118Z,94581.09
2022-12-03T13:21:38.150Z,94575.91
2022-12-03T13:24:26.357Z,94578.34
2022-12-03T13:26:54.686Z,94572.50
2022-12-03T13:29:24.402Z,94568.13
2022-12-03T13:31:52.622Z,94569.91
2022-12-03T13:34:21.429Z,94568.13
2022-12-03T13:39:39.096Z,94560.09
2022-12-03T13:42:38.072Z,94563.69
2022-12-03T13:45:27.779Z,94563.31
2022-12-03T13:47:55.554Z,94560.50
2022-12-03T13:50:28.867Z,94558.50
2022-12-03T13:52:55.841Z,94550.66
2022-12-03T13:55:26.332Z,94552.09
2022-12-03T13:57:54.291Z,94554.09
2022-12-03T14:00:21.485Z,94544.22
2022-12-03T14:02:48.084Z,94547.81
2022-12-03T14:05:15.043Z,94544.41
2022-12-03T14:07:41.615Z,94544.59
2022-12-03T14:10:11.329Z,94543.81
2022-12-03T14:12:37.705Z,94538.59
2022-12-03T14:15:07.066Z,94536.19
2022-12-03T14:17:33.648Z,94536.59
2022-12-03T14:20:01.335Z,94534.13
2022-12-03T14:22:28.185Z,94528.53
2022-12-03T14:24:54.893Z,94523.34
2022-12-03T14:27:22.279Z,94520.09
2022-12-03T14:29:48.799Z,94539.22
2022-12-03T14:32:17.217Z,94540.59
2022-12-03T14:34:43.786Z,94535.59
2022-12-03T14:37:10.327Z,94535.22
2022-12-03T14:39:37.148Z,94532.59
2022-12-03T14:42:16.809Z,94536.03
2022-12-03T14:44:45.343Z,94535.03
2022-12-03T14:47:12.737Z,94528.78
2022-12-03T14:49:40.637Z,94523.38
2022-12-03T14:52:11.356Z,94526.78
2022-12-03T14:54:44.779Z,94525.19
2022-12-03T14:57:12.738Z,94520.75
2022-12-03T14:59:39.852Z,94512.91
2022-12-03T15:02:06.700Z,94509.69
2022-12-03T15:04:33.298Z,94519.75
2022-12-03T15:07:01.203Z,94522.19
2022-12-03T15:09:27.777Z,94527.41
2022-12-03T15:11:54.325Z,94521.19
2022-12-03T15:14:20.848Z,94524.78
2022-12-03T15:16:47.483Z,94526.41
2022-12-03T15:19:14.313Z,94522.75
2022-12-03T15:21:40.845Z,94533.25
2022-12-03T15:24:10.326Z,94534.06
2022-12-03T15:26:37.276Z,94526.03
2022-12-03T15:29:03.791Z,94529.44
2022-12-03T15:31:30.472Z,94527.81
2022-12-03T15:33:57.031Z,94534.66
2022-12-03T15:36:23.593Z,94532.06
2022-12-03T15:38:50.141Z,94534.66
2022-12-03T15:41:21.312Z,94530.25
2022-12-03T15:43:48.027Z,94523.22
2022-12-03T15:46:14.612Z,94527.63
2022-12-03T15:48:41.193Z,94526.47
2022-12-03T15:51:07.717Z,94526.63
2022-12-03T15:53:34.315Z,94530.09
2022-12-03T15:56:00.851Z,94524.00
2022-12-03T15:58:28.824Z,94535.13
2022-12-03T16:00:55.619Z,94528.28
2022-12-03T16:03:22.513Z,94523.84
2022-12-03T16:05:49.106Z,94535.94
2022-12-03T16:08:15.750Z,94527.47
2022-12-03T16:10:42.353Z,94526.81
2022-12-03T16:13:08.908Z,94521.59
2022-12-03T16:15:36.843Z,94508.09
2022-12-03T16:18:03.730Z,94515.13
2022-12-03T16:20:30.347Z,94525.41
2022-12-03T16:22:56.931Z,94527.47
2022-12-03T16:25:23.458Z,94524.47
2022-12-03T16:27:49.996Z,94523.47
2022-12-03T16:30:16.933Z,94510.63
2022-12-03T16:32:44.847Z,94520.06
2022-12-03T16:35:11.386Z,94523.09
2022-12-03T16:37:37.905Z,94514.06
2022-12-03T16:40:05.376Z,94517.09
2022-12-03T16:42:32.002Z,94513.47
2022-12-03T16:45:04.473Z,94510.66
2022-12-03T16:47:34.112Z,94513.28
2022-12-03T16:50:03.388Z,94510.06
2022-12-03T16:52:29.925Z,94499.41
2022-12-03T16:54:56.532Z,94506.66
2022-12-03T16:57:23.082Z,94500.84
2022-12-03T16:59:49.632Z,94496.41
2022-12-03T17:02:16.211Z,94493.59
2022-12-03T17:04:42.833Z,94497.22
2022-12-03T17:07:10.690Z,94503.25
2022-12-03T17:09:37.214Z,94492.41
2022-12-03T17:12:03.964Z,94489.38
2022-12-03T17:14:33.390Z,94491.00
2022-12-03T17:17:00.044Z,94491.19
2022-12-03T17:19:26.587Z,94508.50
2022-12-03T17:21:54.099Z,94497.84
2022-12-03T17:24:22.023Z,94496.03
2022-12-03T17:26:48.541Z,94494.84
2022-12-03T17:29:15.158Z,94497.84
2022-12-03T17:31:42.704Z,94494.25
2022-12-03T17:34:09.575Z,94487.19
2022-12-03T17:36:36.133Z,94486.19
2022-12-03T17:39:02.824Z,94485.59
2022-12-03T17:41:30.733Z,94492.44
2022-12-03T17:43:57.288Z,94486.38
2022-12-03T17:46:23.860Z,94481.56
2022-12-03T17:48:50.474Z,94481.78
2022-12-03T17:51:17.033Z,94477.94
2022-12-03T17:53:43.556Z,94474.94
2022-12-03T17:56:10.076Z,94477.53
2022-12-03T17:58:37.965Z,94471.91
2022-12-03T18:01:05.624Z,94473.53
2022-12-03T18:03:32.303Z,94470.91
2022-12-03T18:05:58.957Z,94469.91
2022-12-03T18:08:25.747Z,94471.91
2022-12-03T18:10:52.358Z,94464.47
2022-12-03T18:13:18.881Z,94456.63
2022-12-03T18:15:46.828Z,94459.25
2022-12-03T18:18:13.451Z,94458.44
2022-12-03T18:20:40.055Z,94460.03
2022-12-03T18:23:06.589Z,94456.63
2022-12-03T18:25:33.161Z,94459.25
2022-12-03T18:27:59.742Z,94465.47
2022-12-03T18:30:26.391Z,94463.66
2022-12-03T18:32:54.416Z,94469.34
2022-12-03T18:35:21.116Z,94469.13
2022-12-03T18:37:49.221Z,94466.31
2022-12-03T18:40:18.779Z,94467.13
2022-12-03T18:42:45.601Z,94468.53
2022-12-03T18:45:13.195Z,94461.66
2022-12-03T18:47:40.003Z,94463.09
2022-12-03T18:50:09.758Z,94468.53
2022-12-03T18:52:36.207Z,94471.16
2022-12-03T18:55:03.145Z,94466.72
2022-12-03T18:57:29.658Z,94464.91
2022-12-03T18:59:56.424Z,94460.88
2022-12-03T19:05:11.538Z,94471.75
2022-12-03T19:07:38.381Z,94471.34
2022-12-03T19:10:05.777Z,94470.56
2022-12-03T19:12:32.459Z,94471.56
2022-12-03T19:14:58.994Z,94465.53
2022-12-03T19:17:27.090Z,94480.44
2022-12-03T19:19:54.082Z,94473.97
2022-12-03T19:22:22.536Z,94482.22
2022-12-03T19:24:49.709Z,94471.56
2022-12-03T19:27:16.535Z,94472.56
2022-12-03T19:29:43.186Z,94471.56
2022-12-03T19:32:09.714Z,94475.19
2022-12-03T19:34:36.537Z,94473.38
2022-12-03T19:37:03.073Z,94469.94
2022-12-03T19:39:34.231Z,94462.09
2022-12-03T19:42:00.780Z,94468.94
2022-12-03T19:44:27.310Z,94463.09
2022-12-03T19:46:54.122Z,94464.91
2022-12-03T19:49:21.246Z,94463.91
2022-12-03T19:51:47.963Z,94463.09
2022-12-03T19:54:15.257Z,94468.13
2022-12-03T19:56:44.099Z,94463.72
2022-12-03T19:59:12.029Z,94453.44
2022-12-03T20:01:40.662Z,94459.88
2022-12-03T20:04:07.855Z,94466.53
2022-12-03T20:06:37.778Z,94461.28
2022-12-03T20:09:07.177Z,94456.88
2022-12-03T20:11:34.640Z,94459.47
2022-12-03T20:14:05.515Z,94462.91
2022-12-03T20:16:32.572Z,94454.03
2022-12-03T20:19:01.124Z,94439.84
2022-12-03T20:21:29.671Z,94442.47
2022-12-03T20:23:56.296Z,94439.06
2022-12-03T20:26:22.996Z,94434.69
2022-12-03T20:28:49.842Z,94440.91
2022-12-03T20:31:19.752Z,94429.88
2022-12-03T20:33:48.995Z,94421.03
2022-12-03T20:36:18.011Z,94435.31
2022-12-03T20:38:44.917Z,94428.47
2022-12-03T20:41:13.035Z,94429.28
2022-12-03T20:43:39.763Z,94437.72
2022-12-03T20:46:07.523Z,94422.22
2022-12-03T20:48:36.066Z,94423.59
2022-12-03T20:51:03.732Z,94423.84
2022-12-03T20:53:30.373Z,94415.50
2022-12-03T20:55:57.686Z,94421.59
2022-12-03T20:58:24.569Z,94418.94
2022-12-03T21:00:51.191Z,94425.59
2022-12-03T21:03:17.737Z,94424.00
2022-12-03T21:05:45.729Z,94416.47
2022-12-03T21:08:12.475Z,94419.38
2022-12-03T21:10:46.278Z,94411.06
2022-12-03T21:13:14.449Z,94419.31
2022-12-03T21:15:41.660Z,94410.56
2022-12-03T21:18:09.197Z,94414.69
2022-12-03T21:20:39.895Z,94412.00
2022-12-03T21:23:07.936Z,94415.72
2022-12-03T21:25:35.125Z,94420.97
2022-12-03T21:28:01.771Z,94410.31
2022-12-03T21:30:28.373Z,94417.75
2022-12-03T21:32:54.940Z,94410.13
2022-12-03T21:35:21.633Z,94403.09
2022-12-03T21:37:48.977Z,94405.88
2022-12-03T21:40:18.213Z,94398.47
2022-12-03T21:42:44.770Z,94400.63
2022-12-03T21:45:11.399Z,94406.47
2022-12-03T21:47:38.017Z,94402.63
2022-12-03T21:50:06.782Z,94401.56
2022-12-03T21:52:34.173Z,94406.53
2022-12-03T21:55:00.816Z,94403.44
2022-12-03T21:57:28.677Z,94398.63
2022-12-03T21:59:55.433Z,94405.47
2022-12-03T22:02:22.432Z,94400.59
2022-12-03T22:04:49.932Z,94393.00
2022-12-03T22:07:17.106Z,94404.47
2022-12-03T22:09:43.684Z,94396.84
2022-12-03T22:12:10.196Z,94393.22
2022-12-03T22:14:38.097Z,94395.84
2022-12-03T22:17:04.624Z,94393.22
2022-12-03T22:19:31.363Z,94400.09
2022-12-03T22:21:57.905Z,94396.47
2022-12-03T22:24:24.476Z,94389.41
2022-12-03T22:26:53.385Z,94385.19
2022-12-03T22:29:20.032Z,94393.03
2022-12-03T22:31:47.937Z,94386.78
2022-12-03T22:34:14.476Z,94392.38
2022-12-03T22:36:41.065Z,94393.59
2022-12-03T22:39:07.665Z,94388.56
2022-12-03T22:41:34.186Z,94395.63
2022-12-03T22:44:00.724Z,94392.44
2022-12-03T22:46:27.311Z,94386.00
2022-12-03T22:48:55.245Z,94383.38
2022-12-03T22:51:24.883Z,94381.31
2022-12-03T22:53:54.335Z,94383.03
2022-12-03T22:56:22.265Z,94384.22
2022-12-03T22:58:49.042Z,94395.88
2022-12-03T23:01:21.348Z,94381.59
2022-12-03T23:03:48.022Z,94385.38
2022-12-03T23:06:16.612Z,94368.22
2022-12-03T23:08:43.451Z,94377.66
2022-12-03T23:11:10.085Z,94380.09
2022-12-03T23:13:36.973Z,94368.03
2022-12-03T23:16:04.726Z,94373.28
2022-12-03T23:18:31.659Z,94360.59
2022-12-03T23:20:58.856Z,94358.75
2022-12-03T23:23:28.068Z,94347.53
2022-12-03T23:25:58.463Z,94362.19
2022-12-03T23:28:25.588Z,94351.56
2022-12-03T23:30:52.255Z,94348.31
2022-12-03T23:33:18.954Z,94340.88
2022-12-03T23:35:45.622Z,94335.63
2022-12-03T23:38:12.216Z,94335.84
2022-12-03T23:40:44.770Z,94343.28
2022-12-03T23:43:14.368Z,94338.03
2022-12-03T23:45:40.982Z,94339.06
2022-12-03T23:48:07.528Z,94337.25
2022-12-03T23:50:34.897Z,94335.44
2022-12-03T23:53:01.448Z,94333.81
2022-12-03T23:55:27.973Z,94339.84
2022-12-03T23:57:55.877Z,94347.50
